Gladstone Airport
YGLA : now visible

Airfield :











YOU CAN JOIN US ON...

 
LOGIN :

Register | Disclaimer

   EN    FR    IT 

 









Legend :    VFR   Marginal VFR   IFR   Intensive IFR   Very Intensive IFR
Visi :
Ceiling :
>= 8 km
>= 3000ft
5 to 8 km
1000 to 3000 ft
1500m to 5 km
500 to 1000 ft
800 to 1500m
200 to 500 ft
< 800m
< 200 ft
Symbols :   Thunderstorms  Fog  Heavy snow  Heavy precipitations  Wind > 20 kt






- Airport Elevation : 64 ft
- IATA code : GLT


YGLA - Gladstone

CURRENT METAR :
  • 030200Z AUTO 08011KT 9999 // NCD 32/21 Q1008 RF00.0/000.0

EXPIRED METARs :
  • 030130Z AUTO 08011KT 9999 // NCD 31/21 Q1008 RF00.0/000.0
  • 030100Z AUTO 08012KT 9999 // SCT032 SCT044 31/20 Q1008
  • 030030Z AUTO 12011KT 9999 // BKN030 BKN034 OVC044 30/20 Q1009
  • 030000Z AUTO 10011KT 9999 // OVC030 30/21 Q1009 RF00.0/000.0
  • 022330Z AUTO 10009KT 070V130 9999 // SCT023 BKN029 BKN039 29/21 Q1009

TAF TAF YGLA
Valid from the 03 at 00:00 until the 03 at 12:00 UTC


022225Z 0300/0312 12012KT 9999 SCT025
FM030300 10016KT 9999 SCT030
FM031000 11012KT 9999 -SHRA SCT015
YBBB FIR / Oceania



MET'MAP, your aeronautical weather chart ! - Copyright ORBIFLY December 2007 - Disclaimer

ORBIFLY MET'MAP TEAM :

Programming & Development : Alexandra Zaïnal
Concept & original design : Baudouin d'Aumeries
Assistance for programming : Marc-Olivier Méhu
Technical & hardware support : Manuel Goepfert

Contact : metmap@orbifly.com




SOURCES & CREDITS :

   NOAA       Earth
Advisory